Gilze en Rijen, Nederland

1:20 AM CET op 25 november 2014 (GMT +0100)
Tilburg-Reeshof | Change Station
CLOSE
Current Station
Persoonlijk weerstation
Location: Tilburg, NOORD-BRABANT
Geometrische hoogte: 20 ft
Nabije weerstations

Hoogte 20 ft 51.58 °N, 5.01 °E | Updated 5 seconds ago

Mist
Mist
34.2 °F
Voelt als 34 °F
N
0.0
Wind Variabel Wind van noord
Gusts 0.0 mijl/u

Vandaag
Hoog -- | Laag -- °F
--% Kans op neerslag
Gisteren
Hoog -- | Laag -- °F
Precip. -- inches
8:14 AM 4:39 PM
Wassende halvemaan, 8% visible
Druk 30.33 inches
Zicht 1.2 mijlen
Wolken
Gevoelstemperatuur 34 °F
Dauwpunt 32 °F
Vochtigheid 94%
Neerslag 0.00 inches
Dikte sneeuw Niet beschikbaar.
UV Niet beschikbaar.
Pollen Niet beschikbaar.
Luchtkwaliteit Niet beschikbaar.
Flu Activity Niet beschikbaar.
SPECI EHWO 250016Z AUTO 06003KT 2000 BR FEW000 00/00 Q1027 YLO

More Conditions Fewer Conditions

Druk 30.33 inches
Zicht 1.2 mijlen
Wolken
Gevoelstemperatuur 34 °F
Dauwpunt 32 °F
Vochtigheid 94%
Neerslag 0.00 inches
Dikte sneeuw Niet beschikbaar.
UV Niet beschikbaar.
Pollen Niet beschikbaar.
Luchtkwaliteit Niet beschikbaar.
Flu Activity Niet beschikbaar.
SPECI EHWO 250016Z AUTO 06003KT 2000 BR FEW000 00/00 Q1027 YLO

More Conditions Fewer Conditions

10-Day Weather Forecast

Almanac

Astronomie

Nov. 25, 2014 Opkomst Ondergang
Werkelijke tijd
Burgerlijke schemering
Nautische schemering
Astronomische schemering
Maan
Golflengte van het zichtbare licht
Daglengte
Tomorrow will be .
, % of the Moon is Illuminated

Extremen vandaag

Country Highs Country Lows

Community

WunderPhotos

Upload Photos

1,773,442 foto’s ge-upload!

WunderBlogs® & News

Nearby

Luchtkwaliteit

  Luchtkwaliteit LK-index Verontreinigende stof
Not available.

Dikte sneeuw

Station Depth Geometrische hoogte

Aardbevingen

Stad Distance Mag. Time & Date
Minimum magnitude displayed is 2.5.

Watertemperatuur langs de kust

Plaats Temperatuur

Nabije weerstations